Time;durP1;ratioP1;P1;durP2;ratioP2;P2;SDS_P1;SDS_P2;PMS_P1;PMS_P2;Temp;Humidity;BMP_temperature;BMP_pressure;BME280_temperature;BME280_humidity;BME280_pressure;Samples;Min_cycle;Max_cycle;Signal;HPM_P1;HPM_P2
2022/09/16 00:00:31;;;;;;;2.83;0.70;;;14.50;99.90;;;;;;4983172;28;20090;-75
2022/09/16 00:02:59;;;;;;;5.28;0.93;;;14.50;99.90;;;;;;4980520;28;20090;-73
2022/09/16 00:05:25;;;;;;;4.90;0.90;;;14.40;99.90;;;;;;4981434;28;21414;-74
2022/09/16 00:07:51;;;;;;;2.97;1.00;;;14.40;99.90;;;;;;4981925;28;20102;-74
2022/09/16 00:10:17;;;;;;;1.73;1.00;;;14.30;99.90;;;;;;4977791;28;20030;-74
2022/09/16 00:12:42;;;;;;;5.60;1.00;;;14.30;99.90;;;;;;4983888;28;20035;-73
2022/09/16 00:15:09;;;;;;;4.28;1.00;;;14.30;99.90;;;;;;4981329;28;20023;-77
2022/09/16 00:17:37;;;;;;;8.13;1.02;;;14.40;99.90;;;;;;4986814;28;20026;-71
2022/09/16 00:20:04;;;;;;;6.10;1.10;;;14.30;99.90;;;;;;4983449;28;20403;-73
2022/09/16 00:22:30;;;;;;;3.60;0.50;;;14.30;99.90;;;;;;4980679;28;20022;-76
2022/09/16 00:24:58;;;;;;;6.40;1.17;;;14.30;99.90;;;;;;4981130;28;20042;-73
2022/09/16 00:27:24;;;;;;;3.50;0.68;;;14.40;99.90;;;;;;4979883;28;20037;-75
2022/09/16 00:29:49;;;;;;;2.05;0.70;;;14.40;99.90;;;;;;4981441;28;20105;-72
2022/09/16 00:32:17;;;;;;;4.00;0.88;;;14.40;99.90;;;;;;4981891;28;20038;-75
2022/09/16 00:34:43;;;;;;;8.73;2.15;;;14.40;99.90;;;;;;4980914;28;20049;-73
2022/09/16 00:37:11;;;;;;;3.47;0.95;;;14.30;99.90;;;;;;4980451;28;20352;-75
2022/09/16 00:39:37;;;;;;;6.85;1.00;;;14.40;99.90;;;;;;4981896;28;20034;-72
2022/09/16 00:42:03;;;;;;;4.10;0.80;;;14.40;99.90;;;;;;4978544;28;20042;-72
2022/09/16 00:44:56;;;;;;;5.32;1.92;;;14.40;99.90;;;;;;4982021;28;20070;-73
2022/09/16 00:47:28;;;;;;;4.80;1.00;;;14.40;99.90;;;;;;4980612;28;20185;-75
2022/09/16 00:50:01;;;;;;;8.18;1.17;;;14.50;99.90;;;;;;4977498;28;20175;-71
2022/09/16 00:52:31;;;;;;;5.28;1.20;;;14.50;99.90;;;;;;4980976;28;20034;-74
2022/09/16 00:55:02;;;;;;;6.00;1.10;;;14.50;99.90;;;;;;4979074;28;20034;-72
2022/09/16 00:57:28;;;;;;;3.10;1.08;;;14.50;99.90;;;;;;4982512;28;20031;-73
2022/09/16 00:59:56;;;;;;;8.98;1.35;;;14.50;99.90;;;;;;4975605;28;20037;-73
2022/09/16 01:02:22;;;;;;;5.57;1.45;;;14.50;99.90;;;;;;4980337;28;20065;-73
2022/09/16 01:05:00;;;;;;;8.63;1.38;;;14.50;99.90;;;;;;4981093;28;20022;-72
2022/09/16 01:07:31;;;;;;;6.32;1.30;;;14.50;99.90;;;;;;4984078;28;20444;-74
2022/09/16 01:09:58;;;;;;;4.22;1.35;;;14.60;99.90;;;;;;4982723;28;20034;-73
2022/09/16 01:12:26;;;;;;;7.47;1.42;;;14.40;99.90;;;;;;4983763;28;20448;-75
2022/09/16 01:14:52;;;;;;;5.15;1.42;;;14.40;99.90;;;;;;4978278;28;20102;-78
2022/09/16 01:17:49;;;;;;;8.57;1.48;;;14.50;99.90;;;;;;4983282;28;20117;-78
2022/09/16 01:20:38;;;;;;;8.60;1.58;;;14.50;99.90;;;;;;4984519;28;20022;-78
2022/09/16 01:23:26;;;;;;;3.33;1.15;;;14.50;99.90;;;;;;4991608;28;20022;-74
2022/09/16 01:26:01;;;;;;;4.50;1.30;;;14.50;99.90;;;;;;4987267;28;20023;-75
2022/09/16 01:28:50;;;;;;;6.80;1.52;;;14.40;99.90;;;;;;4987407;28;20038;-74
2022/09/16 01:32:00;;;;;;;6.18;1.50;;;14.40;99.90;;;;;;4993377;28;20023;-73
2022/09/16 01:34:34;;;;;;;8.02;1.90;;;14.40;99.90;;;;;;4969445;28;20468;-74
2022/09/16 01:37:20;;;;;;;4.10;1.55;;;14.30;99.90;;;;;;4984375;28;20046;-77
2022/09/16 01:40:15;;;;;;;2.67;1.50;;;14.40;99.90;;;;;;4983717;28;20035;-75
2022/09/16 01:42:59;;;;;;;5.38;1.70;;;14.40;99.90;;;;;;4986222;28;20049;-72
2022/09/16 01:45:57;;;;;;;8.48;1.90;;;14.40;99.90;;;;;;4982817;28;20078;-72
2022/09/16 01:48:49;;;;;;;8.93;1.50;;;14.40;99.90;;;;;;4977549;28;20046;-73
2022/09/16 01:51:24;;;;;;;4.87;1.60;;;14.40;99.90;;;;;;4980431;28;20102;-74
2022/09/16 01:53:50;;;;;;;7.90;1.60;;;14.40;99.90;;;;;;4984243;28;20058;-73
2022/09/16 01:56:43;;;;;;;4.82;1.40;;;14.40;99.90;;;;;;4978627;28;20065;-74
2022/09/16 01:59:32;;;;;;;7.03;1.65;;;14.40;99.90;;;;;;4978181;28;20750;-74
2022/09/16 02:02:18;;;;;;;5.38;1.20;;;14.40;99.90;;;;;;4984898;28;20045;-74
2022/09/16 02:04:50;;;;;;;7.35;1.60;;;14.50;99.90;;;;;;4976666;28;20154;-73
2022/09/16 02:07:17;;;;;;;4.07;1.15;;;14.50;99.90;;;;;;4980723;28;20042;-73
2022/09/16 02:09:51;;;;;;;7.57;1.10;;;14.50;99.90;;;;;;4980173;28;20173;-74
2022/09/16 02:12:25;;;;;;;7.05;1.85;;;14.50;99.90;;;;;;4978437;28;20375;-73
2022/09/16 02:14:54;;;;;;;5.47;1.67;;;14.50;99.90;;;;;;4981855;28;20037;-74
2022/09/16 02:17:25;;;;;;;5.80;1.35;;;14.40;99.90;;;;;;4977336;28;20037;-73
2022/09/16 02:20:22;;;;;;;4.68;1.30;;;14.40;99.90;;;;;;4979503;28;20026;-74
2022/09/16 02:23:04;;;;;;;4.32;1.23;;;14.40;99.90;;;;;;4979724;28;20044;-74
2022/09/16 02:25:34;;;;;;;4.28;0.82;;;14.40;99.90;;;;;;4986671;28;20044;-72
2022/09/16 02:28:04;;;;;;;4.95;1.55;;;14.40;99.90;;;;;;4976862;28;20026;-71
2022/09/16 02:30:31;;;;;;;8.52;1.88;;;14.30;99.90;;;;;;4982122;28;20096;-72
2022/09/16 02:33:02;;;;;;;5.05;1.35;;;14.30;99.90;;;;;;4979821;28;20081;-72
2022/09/16 02:35:30;;;;;;;6.47;1.83;;;14.40;99.90;;;;;;4978759;28;20138;-73
2022/09/16 02:38:06;;;;;;;5.47;1.20;;;14.30;99.90;;;;;;4977480;28;20033;-73
2022/09/16 02:40:42;;;;;;;6.70;1.30;;;14.30;99.90;;;;;;4981583;28;20034;-71
2022/09/16 02:43:08;;;;;;;6.82;1.60;;;14.20;99.90;;;;;;4979620;28;20358;-68
2022/09/16 02:46:06;;;;;;;5.88;1.38;;;14.30;99.90;;;;;;4984218;28;20022;-74
2022/09/16 02:48:43;;;;;;;3.85;1.20;;;14.20;99.90;;;;;;4975973;28;20101;-71
2022/09/16 02:51:15;;;;;;;9.98;1.80;;;14.30;99.90;;;;;;4981033;28;20026;-73
2022/09/16 02:53:59;;;;;;;4.93;1.13;;;14.30;99.90;;;;;;4976808;28;20026;-71
2022/09/16 02:56:38;;;;;;;7.47;1.40;;;14.20;99.90;;;;;;4978188;28;20623;-73
2022/09/16 02:59:07;;;;;;;8.05;1.40;;;14.20;99.90;;;;;;4982636;28;20042;-74
2022/09/16 03:01:38;;;;;;;6.78;1.17;;;14.20;99.90;;;;;;4980143;28;20325;-72
2022/09/16 03:04:03;;;;;;;5.10;1.30;;;14.20;99.90;;;;;;4983531;28;20022;-75
2022/09/16 03:06:34;;;;;;;4.68;1.50;;;14.30;99.90;;;;;;4981872;28;20027;-72
2022/09/16 03:09:02;;;;;;;12.18;1.80;;;14.30;99.90;;;;;;4980986;28;20022;-71
2022/09/16 03:11:48;;;;;;;5.85;1.73;;;14.20;99.90;;;;;;4995884;28;20027;-74
2022/09/16 03:14:35;;;;;;;6.53;1.58;;;14.20;99.90;;;;;;4958172;28;20130;-76
2022/09/16 03:17:34;;;;;;;4.13;1.05;;;14.30;99.90;;;;;;4974992;28;20042;-72
2022/09/16 03:20:10;;;;;;;5.88;1.40;;;14.20;99.90;;;;;;4977048;28;20433;-74
2022/09/16 03:23:09;;;;;;;5.78;1.42;;;14.20;99.90;;;;;;4980129;28;20199;-75
2022/09/16 03:25:43;;;;;;;13.60;1.40;;;14.20;99.90;;;;;;4977291;28;20085;-73
2022/09/16 03:28:15;;;;;;;7.72;1.48;;;14.10;99.90;;;;;;4979854;28;20384;-73
2022/09/16 03:31:04;;;;;;;5.90;1.33;;;14.10;99.90;;;;;;4983141;28;20064;-74
2022/09/16 03:33:52;;;;;;;7.30;1.60;;;14.10;99.90;;;;;;4981918;28;20090;-72
2022/09/16 03:36:24;;;;;;;6.07;1.42;;;14.00;99.90;;;;;;4984644;28;20482;-73
2022/09/16 03:38:53;;;;;;;9.90;1.27;;;14.00;99.90;;;;;;4983527;28;20034;-72
2022/09/16 03:41:21;;;;;;;10.40;2.05;;;14.10;99.90;;;;;;4978859;28;20022;-75
2022/09/16 03:43:56;;;;;;;8.88;1.65;;;14.10;99.90;;;;;;4984692;28;20026;-71
2022/09/16 03:46:29;;;;;;;6.72;1.50;;;14.10;99.90;;;;;;4981121;28;20015;-72
2022/09/16 03:48:58;;;;;;;3.67;1.00;;;14.10;99.90;;;;;;4982435;28;20440;-72
2022/09/16 03:51:24;;;;;;;5.05;1.58;;;14.10;99.90;;;;;;4984558;28;20535;-76
2022/09/16 03:53:56;;;;;;;6.70;1.38;;;14.20;99.90;;;;;;4979231;28;20030;-74
2022/09/16 03:56:25;;;;;;;7.27;1.23;;;14.20;99.90;;;;;;4980178;28;20104;-72
2022/09/16 03:58:53;;;;;;;11.50;1.70;;;14.20;99.90;;;;;;4984593;28;20041;-72
2022/09/16 04:01:19;;;;;;;8.38;2.20;;;14.20;99.90;;;;;;4981563;28;20073;-75
2022/09/16 04:03:45;;;;;;;7.75;1.67;;;14.20;99.90;;;;;;4981691;28;20050;-75
2022/09/16 04:06:13;;;;;;;5.55;1.60;;;14.20;99.90;;;;;;4983535;28;20112;-72
2022/09/16 04:08:43;;;;;;;6.10;1.60;;;14.20;99.90;;;;;;4981356;28;20031;-75
2022/09/16 04:11:09;;;;;;;6.30;1.50;;;14.20;99.90;;;;;;4982598;28;20027;-75
2022/09/16 04:13:35;;;;;;;5.25;1.30;;;14.10;99.90;;;;;;4980472;28;20141;-73
2022/09/16 04:16:05;;;;;;;8.40;1.48;;;14.10;99.90;;;;;;4981389;28;20034;-78
2022/09/16 04:18:33;;;;;;;9.93;1.90;;;14.10;99.90;;;;;;4982555;28;20030;-74
2022/09/16 04:21:00;;;;;;;8.73;1.85;;;14.10;99.90;;;;;;4978912;28;20030;-75
2022/09/16 04:23:32;;;;;;;6.68;1.75;;;14.00;99.90;;;;;;4979506;28;20923;-76
2022/09/16 04:26:00;;;;;;;4.47;1.40;;;14.00;99.90;;;;;;4981693;28;20037;-74
2022/09/16 04:28:27;;;;;;;5.80;1.73;;;14.00;99.90;;;;;;4980391;28;20030;-73
2022/09/16 04:30:53;;;;;;;4.07;1.45;;;14.00;99.90;;;;;;4979460;28;20033;-73
2022/09/16 04:33:22;;;;;;;2.70;1.50;;;13.90;99.90;;;;;;4980317;28;20023;-74
2022/09/16 04:35:47;;;;;;;5.70;1.50;;;13.90;99.90;;;;;;4980526;28;20023;-73
2022/09/16 04:38:13;;;;;;;6.82;1.67;;;13.90;99.90;;;;;;4981044;28;20097;-73
2022/09/16 04:40:38;;;;;;;4.00;1.40;;;13.90;99.90;;;;;;4966184;28;20115;-74
2022/09/16 04:43:04;;;;;;;4.10;1.65;;;13.90;99.90;;;;;;4979134;28;20030;-76
2022/09/16 04:45:30;;;;;;;5.32;1.60;;;13.90;99.90;;;;;;4976695;28;20106;-75
2022/09/16 04:47:58;;;;;;;4.35;1.30;;;13.90;99.90;;;;;;4980886;28;20109;-77
2022/09/16 04:50:27;;;;;;;5.75;1.40;;;14.00;99.90;;;;;;4981068;28;20023;-74
2022/09/16 04:52:52;;;;;;;6.95;1.30;;;14.00;99.90;;;;;;4979591;28;20041;-73
2022/09/16 04:55:21;;;;;;;7.32;1.65;;;13.90;99.90;;;;;;4981612;28;20030;-72
2022/09/16 04:57:48;;;;;;;8.25;1.90;;;13.90;99.90;;;;;;4981276;28;20027;-73
2022/09/16 05:00:16;;;;;;;8.65;1.98;;;13.90;99.90;;;;;;4981680;28;20089;-73
2022/09/16 05:02:45;;;;;;;9.88;1.92;;;13.90;99.90;;;;;;4983190;28;20049;-74
2022/09/16 05:05:16;;;;;;;8.45;2.20;;;13.90;99.90;;;;;;4983108;28;20030;-75
2022/09/16 05:07:46;;;;;;;6.93;1.95;;;13.90;99.90;;;;;;4988535;28;20062;-73
2022/09/16 05:10:12;;;;;;;4.20;2.08;;;13.80;99.90;;;;;;4981618;28;20019;-71
2022/09/16 05:12:37;;;;;;;7.00;1.98;;;13.80;99.90;;;;;;4980292;28;20061;-72
2022/09/16 05:15:04;;;;;;;3.78;2.08;;;13.90;99.90;;;;;;4985295;28;20025;-72
2022/09/16 05:17:32;;;;;;;4.25;2.20;;;13.90;99.90;;;;;;4982147;28;20035;-75
2022/09/16 05:20:01;;;;;;;5.13;2.17;;;13.90;99.90;;;;;;4979144;28;20108;-73
2022/09/16 05:22:29;;;;;;;7.95;2.40;;;13.90;99.90;;;;;;4980353;28;20137;-74
2022/09/16 05:24:56;;;;;;;12.95;2.75;;;13.90;99.90;;;;;;4997201;28;20027;-74
2022/09/16 05:27:26;;;;;;;10.48;2.70;;;13.90;99.90;;;;;;4979126;28;20368;-73
2022/09/16 05:29:55;;;;;;;7.45;2.42;;;13.90;99.90;;;;;;4978572;28;20023;-73
2022/09/16 05:32:20;;;;;;;8.43;2.67;;;13.90;99.90;;;;;;4981734;28;20035;-73
2022/09/16 05:34:46;;;;;;;5.18;2.53;;;14.00;99.90;;;;;;4981042;28;20034;-76
2022/09/16 05:37:11;;;;;;;6.80;2.88;;;13.90;99.90;;;;;;4981099;28;20101;-71
2022/09/16 05:39:37;;;;;;;8.65;3.00;;;14.00;99.90;;;;;;4983055;28;20037;-74
2022/09/16 05:42:03;;;;;;;18.30;2.45;;;13.90;99.90;;;;;;4980158;28;20363;-75
2022/09/16 05:44:34;;;;;;;7.65;2.53;;;13.90;99.90;;;;;;4978794;28;20030;-72
2022/09/16 05:47:03;;;;;;;7.10;3.10;;;14.00;99.90;;;;;;4981348;28;20033;-73
2022/09/16 05:49:31;;;;;;;6.35;2.30;;;14.00;99.90;;;;;;4977147;28;20498;-73
2022/09/16 05:51:59;;;;;;;11.52;2.88;;;14.00;99.90;;;;;;4979403;28;20085;-74
2022/09/16 05:54:24;;;;;;;7.78;2.78;;;14.10;99.90;;;;;;4979968;28;20034;-74
2022/09/16 05:56:53;;;;;;;5.60;2.58;;;14.20;99.90;;;;;;4984213;28;20022;-71
2022/09/16 05:59:18;;;;;;;7.68;2.22;;;14.20;99.90;;;;;;4981694;28;20352;-67
2022/09/16 06:01:46;;;;;;;9.18;2.10;;;14.30;99.90;;;;;;4981451;28;20033;-71
2022/09/16 06:04:13;;;;;;;2.65;2.10;;;14.20;99.90;;;;;;4980978;28;20044;-73
2022/09/16 06:06:44;;;;;;;6.80;2.08;;;14.20;99.90;;;;;;4980961;28;20027;-72
2022/09/16 06:09:18;;;;;;;5.68;2.30;;;14.30;99.90;;;;;;4985677;28;20105;-72
2022/09/16 06:11:48;;;;;;;7.03;2.42;;;14.30;99.90;;;;;;4979373;28;20050;-74
2022/09/16 06:14:18;;;;;;;5.43;1.83;;;14.30;99.90;;;;;;4982430;28;20032;-73
2022/09/16 06:16:47;;;;;;;4.53;1.83;;;14.30;99.90;;;;;;4984497;28;20027;-78
2022/09/16 06:19:16;;;;;;;10.27;1.60;;;14.40;99.90;;;;;;4986032;28;20065;-75
2022/09/16 06:21:42;;;;;;;7.63;1.42;;;14.50;99.90;;;;;;4979442;28;20063;-74
2022/09/16 06:24:11;;;;;;;2.83;1.83;;;14.50;99.90;;;;;;4981747;28;20118;-74
2022/09/16 06:26:38;;;;;;;9.82;1.77;;;14.50;99.90;;;;;;4980158;28;20038;-74
2022/09/16 06:29:05;;;;;;;6.93;1.52;;;14.50;99.90;;;;;;4979574;28;20023;-76
2022/09/16 06:31:31;;;;;;;6.93;1.60;;;14.60;99.90;;;;;;4979292;28;20041;-74
2022/09/16 06:33:59;;;;;;;3.65;1.55;;;14.60;99.90;;;;;;4976872;28;20367;-74
2022/09/16 06:36:29;;;;;;;5.45;1.25;;;14.60;99.90;;;;;;4979078;28;20034;-74
2022/09/16 06:38:55;;;;;;;5.43;1.48;;;14.60;99.90;;;;;;4982049;28;20053;-68
2022/09/16 06:41:21;;;;;;;7.28;1.40;;;14.70;99.90;;;;;;4975264;28;20019;-75
2022/09/16 06:43:50;;;;;;;3.72;1.33;;;14.80;99.90;;;;;;4978968;28;20038;-75
2022/09/16 06:46:21;;;;;;;2.95;1.35;;;15.00;99.90;;;;;;4977145;28;20034;-73
2022/09/16 06:48:51;;;;;;;6.38;1.17;;;15.00;99.90;;;;;;4982038;28;20771;-72
2022/09/16 06:51:20;;;;;;;5.53;1.25;;;15.00;99.90;;;;;;4976931;28;20440;-74
2022/09/16 06:53:46;;;;;;;4.00;1.08;;;15.00;99.90;;;;;;4978450;28;20090;-73
2022/09/16 06:56:14;;;;;;;4.47;1.38;;;15.00;99.90;;;;;;4979406;28;20149;-73
2022/09/16 06:58:42;;;;;;;4.32;1.05;;;15.00;99.90;;;;;;4976264;28;20027;-74
2022/09/16 07:01:13;;;;;;;5.72;1.30;;;15.10;99.90;;;;;;4987035;28;20132;-72
2022/09/16 07:03:42;;;;;;;7.28;0.90;;;15.10;99.90;;;;;;4979029;28;20118;-70
2022/09/16 07:06:09;;;;;;;3.75;1.15;;;15.10;99.90;;;;;;4983162;28;20026;-73
2022/09/16 07:08:35;;;;;;;5.18;1.13;;;15.10;99.90;;;;;;4983716;28;20022;-75
2022/09/16 07:11:02;;;;;;;3.00;0.93;;;15.20;99.90;;;;;;4984410;28;20027;-74
2022/09/16 07:13:28;;;;;;;2.35;1.00;;;15.20;99.90;;;;;;4984618;28;20045;-74
2022/09/16 07:15:57;;;;;;;5.80;1.20;;;15.30;99.90;;;;;;4984802;28;20121;-74
2022/09/16 07:18:23;;;;;;;5.78;1.20;;;15.30;99.90;;;;;;4986116;28;20444;-73
2022/09/16 07:20:48;;;;;;;4.30;1.17;;;15.30;99.90;;;;;;4983012;28;20034;-74
2022/09/16 07:23:19;;;;;;;3.90;1.10;;;15.30;99.90;;;;;;4987327;28;20031;-77
2022/09/16 07:25:44;;;;;;;9.23;0.93;;;15.20;99.90;;;;;;4991150;28;20026;-76
2022/09/16 07:28:10;;;;;;;3.05;1.08;;;15.30;99.90;;;;;;4988656;28;20103;-74
2022/09/16 07:30:41;;;;;;;4.50;1.05;;;15.30;99.90;;;;;;4995677;28;20053;-74
2022/09/16 07:33:07;;;;;;;7.55;1.05;;;15.50;99.90;;;;;;4986486;28;20018;-75
2022/09/16 07:35:33;;;;;;;7.43;1.63;;;15.50;99.90;;;;;;4981485;28;20036;-72
2022/09/16 07:38:01;;;;;;;3.85;1.00;;;15.60;99.90;;;;;;4981431;28;20354;-74
2022/09/16 07:40:27;;;;;;;1.08;0.65;;;15.70;99.90;;;;;;4985633;28;20026;-72
2022/09/16 07:42:53;;;;;;;3.42;0.90;;;15.70;99.90;;;;;;4981847;28;20357;-74
2022/09/16 07:45:18;;;;;;;5.35;0.80;;;15.70;99.90;;;;;;4988258;28;20026;-72
2022/09/16 07:47:48;;;;;;;2.08;0.98;;;15.80;99.90;;;;;;4989942;28;20387;-75
2022/09/16 07:50:14;;;;;;;6.43;0.60;;;15.90;99.90;;;;;;4980955;28;20026;-77
2022/09/16 07:52:40;;;;;;;4.35;1.45;;;16.00;99.90;;;;;;4985192;28;20085;-73
2022/09/16 07:55:06;;;;;;;7.07;1.23;;;16.00;99.90;;;;;;4987830;28;20053;-76
2022/09/16 07:57:32;;;;;;;2.33;0.80;;;16.00;99.90;;;;;;4984563;28;20035;-75
2022/09/16 07:59:58;;;;;;;4.88;0.90;;;16.00;99.90;;;;;;4986860;28;20450;-76
2022/09/16 08:02:24;;;;;;;5.18;0.80;;;16.20;99.90;;;;;;4980024;28;20027;-75
2022/09/16 08:04:52;;;;;;;6.10;0.80;;;16.20;99.90;;;;;;4979897;28;20022;-73
2022/09/16 08:07:20;;;;;;;4.90;1.05;;;16.30;99.90;;;;;;4981948;28;20428;-75
2022/09/16 08:09:45;;;;;;;8.68;1.50;;;16.30;99.90;;;;;;4982643;28;20034;-75
2022/09/16 08:12:13;;;;;;;2.00;0.60;;;16.40;99.90;;;;;;4983284;28;20056;-73
2022/09/16 08:14:39;;;;;;;3.00;0.88;;;16.50;99.90;;;;;;4980379;28;20033;-75
2022/09/16 08:17:07;;;;;;;2.97;0.82;;;16.70;99.90;;;;;;4981690;28;20110;-74
2022/09/16 08:19:33;;;;;;;3.25;0.90;;;16.80;99.90;;;;;;4982531;28;20026;-75
2022/09/16 08:21:59;;;;;;;11.32;1.10;;;16.90;99.90;;;;;;4977260;28;20364;-76
2022/09/16 08:24:25;;;;;;;7.15;1.00;;;16.90;99.90;;;;;;4981682;28;20049;-75
2022/09/16 08:26:51;;;;;;;7.68;1.08;;;17.10;99.90;;;;;;4982238;28;20027;-73
2022/09/16 08:29:16;;;;;;;4.47;0.75;;;17.50;99.90;;;;;;4976750;28;20034;-76
2022/09/16 08:31:42;;;;;;;5.60;1.17;;;17.90;99.90;;;;;;4984066;28;20027;-73
2022/09/16 08:34:08;;;;;;;3.83;0.80;;;17.80;99.90;;;;;;4979482;28;20042;-72
2022/09/16 08:36:33;;;;;;;6.45;1.20;;;17.70;99.90;;;;;;4981529;28;20106;-74
2022/09/16 08:38:59;;;;;;;4.95;1.15;;;17.40;99.90;;;;;;4980683;28;20077;-74
2022/09/16 08:41:53;;;;;;;3.97;0.75;;;17.30;99.90;;;;;;4978894;28;20433;-74
2022/09/16 08:44:26;;;;;;;7.20;0.88;;;17.50;99.90;;;;;;4984672;28;20041;-74
2022/09/16 08:46:55;;;;;;;3.20;0.70;;;17.70;99.90;;;;;;4981527;28;20061;-72
2022/09/16 08:49:27;;;;;;;2.38;0.73;;;17.80;99.90;;;;;;4983469;28;20027;-74
2022/09/16 08:51:58;;;;;;;4.87;1.20;;;17.90;99.70;;;;;;4981949;28;20112;-69
2022/09/16 08:54:30;;;;;;;4.85;1.00;;;18.20;99.90;;;;;;4981326;28;20057;-74
2022/09/16 08:57:02;;;;;;;3.60;0.75;;;18.30;99.40;;;;;;4980118;28;20038;-75
2022/09/16 08:59:39;;;;;;;3.83;0.95;;;18.30;99.10;;;;;;4982474;28;20105;-75
2022/09/16 09:02:23;;;;;;;2.22;0.75;;;18.30;98.70;;;;;;4981936;28;20041;-69
2022/09/16 09:04:49;;;;;;;8.77;1.23;;;18.30;98.80;;;;;;4979580;28;20018;-73
2022/09/16 09:07:27;;;;;;;7.43;1.42;;;18.30;98.40;;;;;;4979865;28;20030;-75
2022/09/16 09:10:30;;;;;;;3.38;0.95;;;18.60;98.30;;;;;;4984898;28;20412;-75
2022/09/16 09:13:23;;;;;;;11.15;1.27;;;18.50;98.50;;;;;;4981170;28;20039;-72
2022/09/16 09:16:26;;;;;;;4.80;0.95;;;18.40;97.90;;;;;;4977531;28;20031;-75
2022/09/16 09:19:30;;;;;;;5.55;1.10;;;18.20;97.80;;;;;;4974060;28;20419;-76
2022/09/16 09:22:20;;;;;;;5.18;0.98;;;18.00;98.10;;;;;;4977612;28;20456;-76
2022/09/16 09:25:08;;;;;;;3.65;0.90;;;18.00;98.80;;;;;;4977748;28;20030;-73
2022/09/16 09:28:23;;;;;;;11.48;1.42;;;18.30;98.40;;;;;;4981468;28;20050;-69
2022/09/16 09:31:24;;;;;;;6.68;1.05;;;19.30;97.10;;;;;;4955389;28;20039;-72
2022/09/16 09:34:14;;;;;;;10.50;0.90;;;20.00;96.90;;;;;;4984469;28;20030;-70
2022/09/16 09:36:43;;;;;;;3.33;0.93;;;19.80;95.30;;;;;;4985568;28;20027;-75
2022/09/16 09:39:41;;;;;;;4.07;1.10;;;20.60;95.60;;;;;;4978274;28;20026;-73
2022/09/16 09:42:20;;;;;;;5.20;0.80;;;20.10;93.40;;;;;;4982416;28;20030;-74
2022/09/16 09:45:10;;;;;;;4.88;1.17;;;18.90;94.10;;;;;;4978398;28;20371;-73
2022/09/16 09:47:44;;;;;;;4.50;1.02;;;18.20;96.00;;;;;;4981322;28;20031;-71
2022/09/16 09:50:25;;;;;;;7.63;0.75;;;18.60;96.50;;;;;;4985677;28;20486;-74
2022/09/16 09:53:12;;;;;;;4.15;0.90;;;20.10;92.30;;;;;;4978159;28;20049;-74
2022/09/16 09:55:42;;;;;;;2.92;0.70;;;20.80;90.90;;;;;;4979977;28;20041;-77
2022/09/16 09:58:23;;;;;;;3.95;0.80;;;21.10;89.40;;;;;;4981233;28;20458;-72
2022/09/16 10:00:51;;;;;;;1.33;1.02;;;21.20;87.30;;;;;;4979641;28;20122;-73
2022/09/16 10:03:17;;;;;;;6.78;1.20;;;21.40;86.30;;;;;;4980302;28;20028;-73
2022/09/16 10:05:45;;;;;;;3.97;0.85;;;22.10;85.00;;;;;;4980304;28;20031;-74
2022/09/16 10:08:37;;;;;;;3.60;1.10;;;21.90;84.70;;;;;;4981409;28;20082;-75
2022/09/16 10:11:18;;;;;;;5.40;1.00;;;20.50;86.70;;;;;;4973407;28;20046;-73
2022/09/16 10:13:54;;;;;;;1.98;0.70;;;20.40;90.10;;;;;;4978265;28;20037;-75
2022/09/16 10:16:27;;;;;;;2.85;0.90;;;20.50;87.30;;;;;;4976441;28;20034;-76
2022/09/16 10:19:04;;;;;;;;;;;20.20;83.70;;;;;;4980108;28;20515;-75
2022/09/16 10:21:46;;;;;;;2.13;0.88;;;20.00;86.50;;;;;;4979898;28;19929;-73
2022/09/16 10:24:32;;;;;;;3.20;0.80;;;19.80;86.80;;;;;;4980993;28;20464;-76
2022/09/16 10:27:03;;;;;;;9.30;1.13;;;20.20;85.80;;;;;;4980273;28;20038;-74
2022/09/16 10:29:30;;;;;;;4.70;1.17;;;20.80;87.80;;;;;;4984647;28;20129;-74
2022/09/16 10:32:05;;;;;;;3.63;1.00;;;20.70;84.90;;;;;;4982644;28;20467;-72
2022/09/16 10:34:39;;;;;;;6.38;1.40;;;20.60;85.20;;;;;;4977962;28;20039;-75
2022/09/16 10:37:13;;;;;;;5.68;1.10;;;20.30;86.30;;;;;;4979419;28;20114;-75
2022/09/16 10:39:54;;;;;;;7.15;1.60;;;19.80;87.70;;;;;;4983152;28;20038;-74
2022/09/16 10:42:26;;;;;;;4.43;0.80;;;19.60;88.70;;;;;;4982644;28;20062;-74
2022/09/16 10:44:57;;;;;;;6.93;1.15;;;19.70;88.30;;;;;;4976508;28;20093;-75
2022/09/16 10:47:29;;;;;;;6.15;1.00;;;19.50;89.40;;;;;;4978563;28;20029;-73
2022/09/16 10:50:00;;;;;;;5.57;1.10;;;19.80;90.20;;;;;;4979662;28;20080;-75
2022/09/16 10:52:43;;;;;;;5.25;1.00;;;20.40;90.20;;;;;;4978897;28;20070;-74
2022/09/16 10:55:20;;;;;;;4.32;1.20;;;21.30;86.40;;;;;;4980147;28;20030;-75
2022/09/16 10:57:46;;;;;;;1.63;0.70;;;21.50;81.00;;;;;;4981238;28;20023;-76
2022/09/16 11:00:15;;;;;;;1.98;0.70;;;21.20;78.20;;;;;;4983982;28;20413;-77
2022/09/16 11:03:24;;;;;;;5.32;0.85;;;20.60;79.50;;;;;;4977730;28;20042;-74
2022/09/16 11:06:11;;;;;;;2.55;0.80;;;20.40;77.50;;;;;;4978028;28;20556;-75
2022/09/16 11:08:49;;;;;;;2.95;0.73;;;20.60;78.70;;;;;;4980119;28;20105;-75
2022/09/16 11:11:21;;;;;;;5.95;0.95;;;20.80;77.30;;;;;;4979990;28;20125;-74
2022/09/16 11:14:11;;;;;;;4.38;1.02;;;20.50;76.90;;;;;;4975055;28;20128;-76
2022/09/16 11:17:08;;;;;;;3.25;1.00;;;20.30;78.80;;;;;;4976938;28;20023;-75
2022/09/16 11:19:37;;;;;;;2.30;1.08;;;20.10;77.90;;;;;;4980013;28;20475;-74
2022/09/16 11:22:18;;;;;;;1.08;0.70;;;20.00;79.70;;;;;;4980085;28;20031;-75
2022/09/16 11:24:59;;;;;;;4.40;0.75;;;20.80;77.30;;;;;;4981152;28;20035;-75
2022/09/16 11:27:49;;;;;;;1.80;1.05;;;21.30;74.50;;;;;;4978047;28;20371;-75
2022/09/16 11:30:20;;;;;;;3.28;0.90;;;21.80;74.80;;;;;;4979942;28;20048;-74
2022/09/16 11:33:07;;;;;;;3.58;0.82;;;21.20;73.30;;;;;;4983220;28;20051;-71
2022/09/16 11:35:44;;;;;;;1.45;0.73;;;21.30;73.30;;;;;;4978585;28;20419;-76
2022/09/16 11:38:27;;;;;;;4.95;0.88;;;21.90;73.80;;;;;;4992530;28;20543;-74
2022/09/16 11:40:56;;;;;;;2.95;1.05;;;22.50;73.30;;;;;;4978879;28;20109;-76
2022/09/16 11:43:30;;;;;;;4.72;1.10;;;23.40;71.10;;;;;;4984910;28;20050;-72
2022/09/16 11:45:59;;;;;;;2.78;0.98;;;22.70;72.00;;;;;;4980451;28;20037;-75
2022/09/16 11:48:43;;;;;;;2.88;0.80;;;21.90;75.30;;;;;;4981872;28;20039;-75
2022/09/16 11:51:45;;;;;;;7.93;0.98;;;21.30;77.90;;;;;;4983346;28;20027;-76
2022/09/16 11:54:54;;;;;;;3.47;1.00;;;21.00;80.00;;;;;;4979815;28;20026;-74
2022/09/16 11:57:28;;;;;;;3.95;0.77;;;20.40;81.60;;;;;;4983542;28;20042;-74
2022/09/16 11:59:59;;;;;;;2.15;0.70;;;20.20;83.10;;;;;;4983262;28;20043;-72
2022/09/16 12:02:47;;;;;;;9.07;0.82;;;20.00;83.90;;;;;;4981489;28;20026;-74
2022/09/16 12:05:19;;;;;;;3.42;0.77;;;19.60;84.30;;;;;;4978362;28;20035;-74
2022/09/16 12:08:13;;;;;;;2.17;0.75;;;19.30;85.30;;;;;;4991855;28;20034;-73
2022/09/16 12:11:12;;;;;;;8.55;0.98;;;19.00;87.00;;;;;;4982162;28;20502;-72
2022/09/16 12:13:43;;;;;;;3.05;0.75;;;18.60;88.70;;;;;;4995594;28;20046;-75
2022/09/16 12:16:38;;;;;;;4.35;0.85;;;18.30;90.10;;;;;;4983977;28;20345;-71
2022/09/16 12:19:15;;;;;;;7.15;0.80;;;18.30;90.90;;;;;;4986540;28;20053;-73
2022/09/16 12:22:09;;;;;;;9.13;1.05;;;18.30;90.90;;;;;;4986459;28;20031;-75
2022/09/16 12:24:40;;;;;;;7.00;1.00;;;18.30;90.90;;;;;;4982738;28;20053;-70
2022/09/16 12:27:20;;;;;;;1.95;0.80;;;18.40;90.80;;;;;;4984357;28;20023;-74
2022/09/16 12:30:12;;;;;;;9.50;1.00;;;18.50;91.00;;;;;;4983954;28;20304;-74
2022/09/16 12:32:45;;;;;;;1.52;0.65;;;18.50;90.40;;;;;;4988924;28;20031;-74
2022/09/16 12:35:18;;;;;;;8.80;1.00;;;18.80;90.50;;;;;;5003903;28;20440;-73
2022/09/16 12:37:52;;;;;;;3.88;1.02;;;19.70;90.40;;;;;;4983239;28;20425;-74
2022/09/16 12:40:23;;;;;;;6.47;0.93;;;20.40;89.30;;;;;;4981602;28;20030;-76
2022/09/16 12:43:00;;;;;;;10.40;0.95;;;19.90;90.60;;;;;;4979603;28;20406;-76
2022/09/16 12:45:47;;;;;;;5.07;1.05;;;19.30;92.40;;;;;;4982956;28;20037;-74
2022/09/16 12:48:24;;;;;;;7.38;1.10;;;19.00;94.70;;;;;;4990945;28;20499;-73
2022/09/16 12:50:56;;;;;;;5.75;1.10;;;19.00;94.80;;;;;;4981223;28;20019;-74
2022/09/16 12:53:59;;;;;;;2.50;1.23;;;19.40;95.30;;;;;;4984542;28;20038;-72
2022/09/16 12:56:30;;;;;;;4.30;1.08;;;20.10;92.60;;;;;;4985273;28;20030;-76
2022/09/16 12:59:28;;;;;;;4.63;0.75;;;20.60;91.80;;;;;;4992664;28;20150;-74
2022/09/16 13:02:15;;;;;;;1.63;0.70;;;20.60;91.20;;;;;;4980174;28;20035;-74
2022/09/16 13:04:48;;;;;;;5.60;0.93;;;20.20;90.50;;;;;;4981755;28;20176;-75
2022/09/16 13:07:22;;;;;;;5.05;0.93;;;20.90;90.60;;;;;;4982119;28;20023;-70
2022/09/16 13:09:58;;;;;;;2.58;0.50;;;21.10;88.10;;;;;;4982949;28;20049;-76
2022/09/16 13:12:28;;;;;;;2.47;0.73;;;21.60;87.50;;;;;;4977814;28;20035;-72
2022/09/16 13:15:04;;;;;;;1.75;0.65;;;22.30;84.80;;;;;;4982574;28;20117;-72
2022/09/16 13:17:38;;;;;;;2.50;0.70;;;22.30;83.30;;;;;;4978032;28;20112;-74
2022/09/16 13:20:14;;;;;;;3.65;1.02;;;22.90;83.20;;;;;;4979567;28;20033;-72